UNNT/OVB METAR and TAF weather

Enter ICAO airport designator
Station Type Date Time Source
UNNT METAR 2020/02/19 14:30 UTC NOAA

UNNT 191430Z 20006MPS 6000 -SHSN SCT011 OVC030CB M04/M05 Q1018 R16/490160 R07/490155 NOSIG RMK QFE754/1005


Station Type Date Time Source
UNNT Decoded METAR 2020/02/19 14:30 UTC NOAA

Station name not available
Feb 19, 2020 - 09:30 AM EST / 2020.02.19 1430 UTC
Wind: from the SSW (200 degrees) at 13 MPH (12 KT):0
Visibility: 3 mile(s):0
Sky conditions: overcast
Weather: light snow showers; Cumulonimbus clouds observed
Temperature: 24 F (-4 C)
Windchill: 12 F (-11 C):1
Dew Point: 23 F (-5 C)
Relative Humidity: 92%
Pressure (altimeter): 30.06 in. Hg (1018 hPa)
ob: UNNT 191430Z 20006MPS 6000 -SHSN SCT011 OVC030CB M04/M05 Q1018 R16/490160 R07/490155 NOSIG RMK QFE754/1005
cycle: 14

Station Type Date Time Source
UNNT TAF 2020/02/19 15:21 UTC NOAA

TAF UNNT 191400Z 1915/2015 20007G15MPS 6000 -SHSN DRSN BKN011CB
TEMPO 1915/1918 1500 SHSN BKN010CB
TEMPO 1918/2006 3100 -SHSN BKN008 BKN011CB
TEMPO 2006/2015 1200 SHSN

Example: see airport list